createdAt,value
2022-08-17T00:00:00.089Z,25.31
2022-08-17T00:02:27.479Z,25.22
2022-08-17T00:04:55.584Z,25.09
2022-08-17T00:07:22.939Z,25.03
2022-08-17T00:09:49.808Z,24.96
2022-08-17T00:12:43.465Z,24.77
2022-08-17T00:15:05.146Z,24.58
2022-08-17T00:17:31.929Z,24.37
2022-08-17T00:20:00.321Z,24.50
2022-08-17T00:22:35.265Z,24.56
2022-08-17T00:25:07.565Z,24.52
2022-08-17T00:27:34.729Z,24.33
2022-08-17T00:30:01.536Z,24.25
2022-08-17T00:33:12.189Z,24.29
2022-08-17T00:35:19.559Z,24.14
2022-08-17T00:37:46.311Z,24.02
2022-08-17T00:40:15.360Z,24.07
2022-08-17T00:42:43.617Z,23.94
2022-08-17T00:45:13.376Z,23.95
2022-08-17T00:47:40.557Z,23.95
2022-08-17T00:50:11.015Z,24.02
2022-08-17T00:52:51.666Z,24.18
2022-08-17T00:55:20.036Z,24.13
2022-08-17T00:57:54.633Z,23.91
2022-08-17T01:00:29.679Z,23.92
2022-08-17T01:03:02.528Z,24.05
2022-08-17T01:05:32.208Z,24.03
2022-08-17T01:08:01.171Z,24.12
2022-08-17T01:10:58.657Z,23.92
2022-08-17T01:13:22.122Z,23.64
2022-08-17T01:15:53.717Z,23.66
2022-08-17T01:18:20.516Z,23.68
2022-08-17T01:20:50.810Z,23.68
2022-08-17T01:23:21.346Z,23.66
2022-08-17T01:25:51.661Z,23.66
2022-08-17T01:28:36.400Z,23.66
2022-08-17T01:31:08.318Z,23.35
2022-08-17T01:33:35.717Z,23.52
2022-08-17T01:36:03.690Z,23.65
2022-08-17T01:38:31.974Z,23.58
2022-08-17T01:41:03.375Z,23.57
2022-08-17T01:43:44.867Z,23.65
2022-08-17T01:46:16.216Z,23.75
2022-08-17T01:48:43.732Z,23.75
2022-08-17T01:51:10.458Z,24.05
2022-08-17T01:53:41.639Z,24.22
2022-08-17T01:56:13.873Z,24.08
2022-08-17T01:58:41.467Z,23.93
2022-08-17T02:01:09.993Z,23.79
2022-08-17T02:03:38.550Z,23.71
2022-08-17T02:06:27.260Z,23.75
2022-08-17T02:09:03.134Z,23.63
2022-08-17T02:11:32.817Z,23.75
2022-08-17T02:14:03.267Z,23.86
2022-08-17T02:16:37.952Z,23.79
2022-08-17T02:19:12.017Z,23.81
2022-08-17T02:21:40.400Z,23.73
2022-08-17T02:24:11.022Z,23.70
2022-08-17T02:26:37.975Z,23.71
2022-08-17T02:29:05.038Z,23.82
2022-08-17T02:31:32.356Z,23.77
2022-08-17T02:34:03.639Z,23.43
2022-08-17T02:36:35.445Z,23.26
2022-08-17T02:39:07.890Z,23.03
2022-08-17T02:41:34.789Z,22.94
2022-08-17T02:44:01.586Z,22.97
2022-08-17T02:46:28.984Z,23.02
2022-08-17T02:48:55.859Z,23.02
2022-08-17T02:51:23.213Z,23.13
2022-08-17T02:53:50.101Z,23.29
2022-08-17T02:56:17.162Z,23.43
2022-08-17T02:58:44.007Z,23.42
2022-08-17T03:01:11.054Z,23.42
2022-08-17T03:03:39.106Z,23.36
2022-08-17T03:06:07.841Z,23.30
2022-08-17T03:08:35.520Z,23.20
2022-08-17T03:11:02.235Z,23.23
2022-08-17T03:13:29.222Z,23.08
2022-08-17T03:15:55.945Z,22.97
2022-08-17T03:18:25.627Z,22.90
2022-08-17T03:20:55.223Z,22.81
2022-08-17T03:23:24.290Z,22.85
2022-08-17T03:25:53.642Z,22.67
2022-08-17T03:28:21.914Z,22.57
2022-08-17T03:30:48.919Z,22.66
2022-08-17T03:33:17.030Z,22.57
2022-08-17T03:35:44.164Z,22.71
2022-08-17T03:38:12.448Z,22.85
2022-08-17T03:40:57.632Z,22.97
2022-08-17T03:43:26.148Z,23.04
2022-08-17T03:46:28.144Z,23.07
2022-08-17T03:49:16.723Z,23.06
2022-08-17T03:52:02.282Z,22.73
2022-08-17T03:54:47.610Z,23.18
2022-08-17T03:57:14.411Z,23.35
2022-08-17T03:59:41.839Z,23.49
2022-08-17T04:02:15.867Z,23.55
2022-08-17T04:04:42.777Z,23.73
2022-08-17T04:07:09.708Z,23.45
2022-08-17T04:09:36.734Z,23.48
2022-08-17T04:12:05.105Z,23.44
2022-08-17T04:14:51.519Z,23.32
2022-08-17T04:17:20.319Z,23.37
2022-08-17T04:19:47.288Z,23.46
2022-08-17T04:22:32.765Z,23.68
2022-08-17T04:25:20.909Z,23.86
2022-08-17T04:27:48.879Z,23.58
2022-08-17T04:30:15.894Z,23.97
2022-08-17T04:33:00.516Z,23.97
2022-08-17T04:35:35.336Z,23.37
2022-08-17T04:38:02.130Z,23.86
2022-08-17T04:40:47.565Z,23.95
2022-08-17T04:43:21.320Z,24.01
2022-08-17T04:45:56.094Z,24.02
2022-08-17T04:48:35.471Z,24.16
2022-08-17T04:51:10.715Z,24.20
2022-08-17T04:53:43.446Z,24.16
2022-08-17T04:56:16.623Z,23.96
2022-08-17T04:58:45.969Z,23.99
2022-08-17T05:01:13.005Z,24.17
2022-08-17T05:03:40.049Z,23.98
2022-08-17T05:06:07.197Z,23.89
2022-08-17T05:08:33.999Z,23.88
2022-08-17T05:11:00.975Z,23.96
2022-08-17T05:13:31.961Z,24.04
2022-08-17T05:16:01.314Z,24.13
2022-08-17T05:18:29.938Z,24.09
2022-08-17T05:20:57.311Z,24.01
2022-08-17T05:23:26.993Z,23.96
2022-08-17T05:26:03.908Z,24.04
2022-08-17T05:28:33.928Z,24.37
2022-08-17T05:31:03.533Z,24.41
2022-08-17T05:33:34.247Z,24.51
2022-08-17T05:36:02.410Z,24.65
2022-08-17T05:38:30.403Z,24.70
2022-08-17T05:40:58.274Z,24.76
2022-08-17T05:43:31.306Z,24.99
2022-08-17T05:46:19.187Z,25.13
2022-08-17T05:48:52.836Z,25.39
2022-08-17T05:51:31.482Z,25.59
2022-08-17T05:54:08.115Z,25.58
2022-08-17T05:57:03.619Z,25.95
2022-08-17T05:59:48.683Z,26.43
2022-08-17T06:02:56.495Z,26.70
2022-08-17T06:06:01.481Z,26.95
2022-08-17T06:08:48.220Z,26.20
2022-08-17T06:11:58.827Z,26.67
2022-08-17T06:14:40.661Z,27.01
2022-08-17T06:17:14.106Z,27.07
2022-08-17T06:20:00.369Z,27.31
2022-08-17T06:22:33.832Z,27.41
2022-08-17T06:25:10.277Z,27.65
2022-08-17T06:27:43.764Z,28.03
2022-08-17T06:30:24.988Z,27.99
2022-08-17T06:32:53.597Z,28.36
2022-08-17T06:35:42.510Z,28.66
2022-08-17T06:38:37.261Z,28.73
2022-08-17T06:41:17.662Z,29.26
2022-08-17T06:44:07.605Z,29.33
2022-08-17T06:46:41.619Z,29.23
2022-08-17T06:49:25.943Z,29.08
2022-08-17T06:52:01.378Z,29.32
2022-08-17T06:54:57.747Z,29.99
2022-08-17T06:57:28.721Z,30.68
2022-08-17T07:00:27.931Z,30.98
2022-08-17T07:03:26.509Z,31.38
2022-08-17T07:05:58.005Z,31.36
2022-08-17T07:08:35.542Z,31.62
2022-08-17T07:11:07.863Z,31.96
2022-08-17T07:14:01.552Z,32.40
2022-08-17T07:16:41.435Z,32.59
2022-08-17T07:19:10.799Z,32.66
2022-08-17T07:21:47.182Z,32.78
2022-08-17T07:24:59.685Z,32.93
2022-08-17T07:27:28.087Z,33.38
2022-08-17T07:30:10.536Z,33.41
2022-08-17T07:32:40.547Z,33.64
2022-08-17T07:35:11.175Z,33.68
2022-08-17T07:37:45.629Z,33.92
2022-08-17T07:40:23.700Z,33.87
2022-08-17T07:43:03.312Z,33.53
2022-08-17T07:45:52.252Z,34.39
2022-08-17T07:48:26.121Z,34.60
2022-08-17T07:50:55.694Z,34.35
2022-08-17T07:53:25.947Z,34.64
2022-08-17T07:55:54.007Z,34.89
2022-08-17T07:58:24.130Z,34.72
2022-08-17T08:01:10.127Z,35.00
2022-08-17T08:03:49.395Z,35.41
2022-08-17T08:06:26.507Z,35.60
2022-08-17T08:08:56.050Z,35.59
2022-08-17T08:11:38.359Z,36.00
2022-08-17T08:14:31.078Z,35.64
2022-08-17T08:17:09.374Z,35.96
2022-08-17T08:19:36.364Z,35.82
2022-08-17T08:22:16.476Z,35.83
2022-08-17T08:25:17.090Z,36.23
2022-08-17T08:28:08.177Z,35.54
2022-08-17T08:30:40.806Z,35.76
2022-08-17T08:33:29.548Z,35.86
2022-08-17T08:36:13.730Z,35.39
2022-08-17T08:39:13.588Z,34.27
2022-08-17T08:41:46.474Z,35.22
2022-08-17T08:45:00.719Z,35.03
2022-08-17T08:47:35.484Z,35.63
2022-08-17T08:50:37.006Z,35.80
2022-08-17T08:53:09.307Z,36.00
2022-08-17T08:55:51.943Z,36.39
2022-08-17T08:58:42.674Z,36.55
2022-08-17T09:01:32.605Z,36.87
2022-08-17T09:04:26.860Z,36.94
2022-08-17T09:07:15.628Z,36.55
2022-08-17T09:09:59.139Z,36.35
2022-08-17T09:12:44.666Z,36.80
2022-08-17T09:15:43.329Z,37.14
2022-08-17T09:19:01.132Z,36.88
2022-08-17T09:21:10.734Z,36.77
2022-08-17T09:23:59.476Z,36.89
2022-08-17T09:26:35.301Z,36.69
2022-08-17T09:29:10.108Z,36.52
2022-08-17T09:31:49.546Z,36.81
2022-08-17T09:34:22.408Z,37.31
2022-08-17T09:37:20.244Z,36.90
2022-08-17T09:39:58.030Z,37.70
2022-08-17T09:42:36.746Z,37.05
2022-08-17T09:45:10.441Z,37.14
2022-08-17T09:47:50.282Z,35.99
2022-08-17T09:50:55.393Z,36.53
2022-08-17T09:53:18.546Z,37.26
2022-08-17T09:55:58.367Z,37.72
2022-08-17T09:58:37.359Z,37.37
2022-08-17T10:01:31.547Z,36.73
2022-08-17T10:04:19.975Z,37.44
2022-08-17T10:06:58.763Z,38.05
2022-08-17T10:09:44.291Z,37.63
2022-08-17T10:12:20.680Z,37.06
2022-08-17T10:15:10.668Z,37.47
2022-08-17T10:18:01.555Z,38.41
2022-08-17T10:20:36.422Z,38.05
2022-08-17T10:23:25.114Z,37.22
2022-08-17T10:26:24.969Z,37.58
2022-08-17T10:29:18.920Z,37.99
2022-08-17T10:31:57.843Z,37.64
2022-08-17T10:34:59.594Z,37.43
2022-08-17T10:37:28.448Z,37.74
2022-08-17T10:40:13.742Z,38.25
2022-08-17T10:42:55.962Z,37.78
2022-08-17T10:45:29.641Z,39.18
2022-08-17T10:48:06.803Z,38.85
2022-08-17T10:50:55.696Z,38.27
2022-08-17T10:53:31.342Z,38.22
2022-08-17T10:56:13.604Z,37.82
2022-08-17T10:58:55.218Z,38.28
2022-08-17T11:02:10.716Z,37.95
2022-08-17T11:04:55.377Z,38.13
2022-08-17T11:08:08.635Z,38.57
2022-08-17T11:10:58.283Z,38.27
2022-08-17T11:13:52.710Z,39.15
2022-08-17T11:16:35.175Z,39.07
2022-08-17T11:19:29.607Z,38.48
2022-08-17T11:22:17.865Z,38.62
2022-08-17T11:24:48.101Z,38.74
2022-08-17T11:27:27.726Z,38.89
2022-08-17T11:30:02.233Z,38.57
2022-08-17T11:32:47.539Z,38.54
2022-08-17T11:35:21.140Z,39.07
2022-08-17T11:38:08.714Z,38.45
2022-08-17T11:40:59.508Z,37.59
2022-08-17T11:44:05.580Z,36.25
2022-08-17T11:47:16.033Z,35.41
2022-08-17T11:50:34.661Z,35.26
2022-08-17T11:53:01.369Z,35.00
2022-08-17T11:55:39.352Z,34.78
2022-08-17T11:58:32.278Z,35.06
2022-08-17T12:01:08.929Z,35.55
2022-08-17T12:03:39.100Z,36.64
2022-08-17T12:06:37.907Z,37.26
2022-08-17T12:09:11.203Z,37.59
2022-08-17T12:11:58.789Z,37.79
2022-08-17T12:15:08.455Z,38.18
2022-08-17T12:17:41.364Z,39.06
2022-08-17T12:20:23.186Z,38.25
2022-08-17T12:23:11.413Z,37.32
2022-08-17T12:25:56.758Z,37.00
2022-08-17T12:28:34.079Z,36.90
2022-08-17T12:31:07.752Z,35.93
2022-08-17T12:33:37.146Z,36.13
2022-08-17T12:36:08.711Z,36.79
2022-08-17T12:38:38.124Z,37.49
2022-08-17T12:41:26.173Z,37.95
2022-08-17T12:44:21.913Z,38.44
2022-08-17T12:47:21.974Z,37.70
2022-08-17T12:49:51.531Z,37.15
2022-08-17T12:52:25.875Z,37.44
2022-08-17T12:55:00.137Z,37.88
2022-08-17T12:57:34.819Z,38.06
2022-08-17T13:00:25.954Z,37.43
2022-08-17T13:02:54.917Z,36.97
2022-08-17T13:05:31.590Z,36.95
2022-08-17T13:07:59.979Z,36.28
2022-08-17T13:10:32.408Z,37.06
2022-08-17T13:13:04.998Z,37.62
2022-08-17T13:15:43.241Z,38.42
2022-08-17T13:18:40.111Z,37.38
2022-08-17T13:21:33.259Z,37.53
2022-08-17T13:24:29.561Z,37.93
2022-08-17T13:27:12.104Z,37.47
2022-08-17T13:29:51.620Z,36.79
2022-08-17T13:32:45.729Z,36.25
2022-08-17T13:35:50.287Z,36.03
2022-08-17T13:38:41.166Z,35.30
2022-08-17T13:41:08.033Z,34.31
2022-08-17T13:43:39.418Z,33.93
2022-08-17T13:46:20.008Z,33.69
2022-08-17T13:49:09.697Z,33.58
2022-08-17T13:51:44.071Z,33.45
2022-08-17T13:54:36.559Z,33.43
2022-08-17T13:57:07.682Z,34.27
2022-08-17T13:59:53.596Z,34.30
2022-08-17T14:02:26.108Z,34.67
2022-08-17T14:04:56.098Z,34.50
2022-08-17T14:07:41.152Z,34.49
2022-08-17T14:10:17.374Z,34.29
2022-08-17T14:12:46.193Z,34.26
2022-08-17T14:15:15.768Z,34.77
2022-08-17T14:17:43.433Z,36.43
2022-08-17T14:20:12.358Z,37.49
2022-08-17T14:22:51.569Z,37.70
2022-08-17T14:25:25.696Z,38.35
2022-08-17T14:27:54.094Z,38.00
2022-08-17T14:30:29.013Z,39.20
2022-08-17T14:32:58.327Z,38.46
2022-08-17T14:35:25.384Z,38.58
2022-08-17T14:37:53.010Z,37.51
2022-08-17T14:40:20.959Z,36.31
2022-08-17T14:42:48.210Z,35.19
2022-08-17T14:45:31.494Z,34.85
2022-08-17T14:48:01.389Z,35.08
2022-08-17T14:50:28.182Z,35.11
2022-08-17T14:52:58.182Z,34.62
2022-08-17T14:55:26.142Z,34.30
2022-08-17T14:57:53.138Z,34.13
2022-08-17T15:00:20.018Z,33.97
2022-08-17T15:02:56.058Z,33.97
2022-08-17T15:05:26.147Z,33.71
2022-08-17T15:07:56.238Z,33.63
2022-08-17T15:10:25.781Z,33.34
2022-08-17T15:12:52.804Z,33.49
2022-08-17T15:15:19.732Z,33.21
2022-08-17T15:17:46.578Z,33.18
2022-08-17T15:20:17.554Z,33.20
2022-08-17T15:22:45.829Z,33.18
2022-08-17T15:25:14.562Z,33.14
2022-08-17T15:27:41.643Z,33.10
2022-08-17T15:30:11.710Z,33.35
2022-08-17T15:32:40.973Z,33.42
2022-08-17T15:35:17.729Z,33.50
2022-08-17T15:37:45.208Z,33.38
2022-08-17T15:40:12.785Z,33.27
2022-08-17T15:42:41.112Z,33.18
2022-08-17T15:45:12.370Z,33.00
2022-08-17T15:47:39.694Z,33.11
2022-08-17T15:50:08.832Z,32.98
2022-08-17T15:52:40.596Z,32.97
2022-08-17T15:55:14.149Z,33.09
2022-08-17T15:57:41.284Z,33.00
2022-08-17T16:00:10.417Z,32.89
2022-08-17T16:03:16.011Z,32.89
2022-08-17T16:05:27.353Z,32.70
2022-08-17T16:07:56.114Z,32.40
2022-08-17T16:10:33.918Z,32.76
2022-08-17T16:13:03.009Z,32.73
2022-08-17T16:15:31.319Z,32.71
2022-08-17T16:17:58.013Z,32.62
2022-08-17T16:20:26.124Z,32.54
2022-08-17T16:22:54.573Z,32.66
2022-08-17T16:25:49.060Z,31.87
2022-08-17T16:28:16.172Z,32.56
2022-08-17T16:30:43.682Z,32.55
2022-08-17T16:33:11.777Z,32.46
2022-08-17T16:35:38.927Z,32.40
2022-08-17T16:38:07.110Z,32.29
2022-08-17T16:40:35.879Z,32.25
2022-08-17T16:43:04.621Z,32.16
2022-08-17T16:45:36.659Z,31.43
2022-08-17T16:48:04.180Z,32.06
2022-08-17T16:50:32.003Z,32.02
2022-08-17T16:53:06.849Z,32.00
2022-08-17T16:55:37.355Z,31.88
2022-08-17T16:58:05.467Z,31.65
2022-08-17T17:00:33.861Z,31.70
2022-08-17T17:03:20.180Z,31.59
2022-08-17T17:06:14.808Z,31.52
2022-08-17T17:08:48.512Z,31.52
2022-08-17T17:11:37.103Z,31.44
2022-08-17T17:14:11.929Z,31.35
2022-08-17T17:17:02.758Z,31.38
2022-08-17T17:19:38.637Z,31.29
2022-08-17T17:22:16.446Z,31.37
2022-08-17T17:25:12.211Z,31.28
2022-08-17T17:28:06.585Z,31.29
2022-08-17T17:30:47.843Z,31.12
2022-08-17T17:33:19.341Z,31.08
2022-08-17T17:35:56.999Z,31.08
2022-08-17T17:38:29.585Z,31.05
2022-08-17T17:41:04.758Z,30.94
2022-08-17T17:43:39.234Z,30.86
2022-08-17T17:46:27.537Z,30.77
2022-08-17T17:48:58.577Z,30.63
2022-08-17T17:51:55.686Z,30.76
2022-08-17T17:54:40.668Z,30.44
2022-08-17T17:57:22.404Z,30.44
2022-08-17T18:00:15.748Z,30.25
2022-08-17T18:03:19.548Z,30.21
2022-08-17T18:06:00.647Z,30.43
2022-08-17T18:08:46.774Z,30.44
2022-08-17T18:11:24.028Z,30.57
2022-08-17T18:14:18.896Z,30.78
2022-08-17T18:16:54.793Z,30.65
2022-08-17T18:19:25.532Z,30.83
2022-08-17T18:22:12.953Z,30.87
2022-08-17T18:24:44.318Z,30.87
2022-08-17T18:27:43.148Z,30.74
2022-08-17T18:30:12.883Z,30.17
2022-08-17T18:32:43.706Z,29.93
2022-08-17T18:35:10.475Z,29.50
2022-08-17T18:37:47.060Z,29.38
2022-08-17T18:40:17.029Z,29.16
2022-08-17T18:42:56.444Z,28.99
2022-08-17T18:45:41.219Z,28.89
2022-08-17T18:48:32.854Z,28.70
2022-08-17T18:51:39.957Z,28.55
2022-08-17T18:54:25.127Z,28.46
2022-08-17T18:56:55.695Z,28.51
2022-08-17T18:59:22.368Z,28.40
2022-08-17T19:02:43.868Z,28.42
2022-08-17T19:05:27.155Z,28.33
2022-08-17T19:07:54.873Z,28.18
2022-08-17T19:10:46.249Z,28.19
2022-08-17T19:13:23.894Z,28.12
2022-08-17T19:16:10.118Z,27.95
2022-08-17T19:18:48.655Z,28.05
2022-08-17T19:21:21.451Z,28.07
2022-08-17T19:23:54.635Z,27.90
2022-08-17T19:26:53.928Z,27.75
2022-08-17T19:29:22.609Z,27.54
2022-08-17T19:31:50.155Z,27.35
2022-08-17T19:34:33.113Z,27.40
2022-08-17T19:37:09.105Z,26.75
2022-08-17T19:40:03.118Z,27.40
2022-08-17T19:42:59.498Z,27.39
2022-08-17T19:45:50.170Z,27.49
2022-08-17T19:48:36.915Z,27.52
2022-08-17T19:51:25.963Z,27.61
2022-08-17T19:54:06.246Z,27.63
2022-08-17T19:57:02.344Z,27.65
2022-08-17T19:59:53.387Z,27.68
2022-08-17T20:02:38.263Z,27.72
2022-08-17T20:05:54.665Z,27.72
2022-08-17T20:08:36.664Z,27.82
2022-08-17T20:11:11.129Z,27.85
2022-08-17T20:13:44.813Z,27.92
2022-08-17T20:16:12.434Z,27.91
2022-08-17T20:19:00.927Z,27.95
2022-08-17T20:21:49.649Z,28.08
2022-08-17T20:24:41.223Z,28.36
2022-08-17T20:27:31.721Z,28.31
2022-08-17T20:30:12.053Z,28.19
2022-08-17T20:32:48.864Z,28.40
2022-08-17T20:35:21.368Z,28.48
2022-08-17T20:37:56.631Z,28.66
2022-08-17T20:40:34.210Z,28.65
2022-08-17T20:43:36.722Z,28.62
2022-08-17T20:46:26.928Z,28.79
2022-08-17T20:48:58.656Z,28.28
2022-08-17T20:51:33.548Z,28.70
2022-08-17T20:54:06.622Z,28.89
2022-08-17T20:57:06.210Z,28.88
2022-08-17T20:59:45.091Z,28.84
2022-08-17T21:02:20.155Z,28.78
2022-08-17T21:05:00.321Z,28.84
2022-08-17T21:07:47.757Z,28.72
2022-08-17T21:10:27.919Z,28.64
2022-08-17T21:13:13.751Z,28.53
2022-08-17T21:15:42.355Z,28.49
2022-08-17T21:18:38.682Z,28.70
2022-08-17T21:21:41.187Z,28.54
2022-08-17T21:24:16.795Z,28.54
2022-08-17T21:26:55.650Z,28.71
2022-08-17T21:29:32.504Z,28.70
2022-08-17T21:32:03.886Z,28.77
2022-08-17T21:34:38.341Z,28.62
2022-08-17T21:37:20.510Z,28.64
2022-08-17T21:39:58.731Z,28.55
2022-08-17T21:42:31.512Z,28.38
2022-08-17T21:45:18.314Z,28.24
2022-08-17T21:47:51.209Z,28.04
2022-08-17T21:50:24.447Z,27.95
2022-08-17T21:53:02.416Z,27.88
2022-08-17T21:55:32.540Z,27.78
2022-08-17T21:58:14.780Z,27.70
2022-08-17T22:00:44.781Z,27.58
2022-08-17T22:03:25.949Z,27.53
2022-08-17T22:05:52.754Z,27.49
2022-08-17T22:08:23.181Z,27.69
2022-08-17T22:10:51.580Z,27.90
2022-08-17T22:13:18.302Z,27.97
2022-08-17T22:16:28.578Z,27.91
2022-08-17T22:18:54.745Z,27.85
2022-08-17T22:21:22.573Z,27.96
2022-08-17T22:24:05.235Z,27.90
2022-08-17T22:27:07.686Z,27.67
2022-08-17T22:29:57.362Z,27.56
2022-08-17T22:32:34.595Z,27.58
2022-08-17T22:35:18.396Z,27.42
2022-08-17T22:37:46.002Z,27.17
2022-08-17T22:40:34.525Z,27.17
2022-08-17T22:43:03.580Z,27.02
2022-08-17T22:45:31.297Z,27.17
2022-08-17T22:48:00.382Z,27.09
2022-08-17T22:50:33.523Z,27.07
2022-08-17T22:53:22.315Z,27.02
2022-08-17T22:56:13.889Z,26.91
2022-08-17T22:59:16.356Z,26.81
2022-08-17T23:01:45.571Z,26.80
2022-08-17T23:04:34.169Z,26.61
2022-08-17T23:07:00.930Z,26.51
2022-08-17T23:09:28.447Z,26.59
2022-08-17T23:11:58.551Z,26.63
2022-08-17T23:14:31.790Z,26.60
2022-08-17T23:17:01.746Z,26.53
2022-08-17T23:19:31.838Z,26.59
2022-08-17T23:21:59.876Z,26.64
2022-08-17T23:24:30.209Z,26.49
2022-08-17T23:26:58.238Z,26.57
2022-08-17T23:29:29.628Z,26.50
2022-08-17T23:32:00.131Z,26.28
2022-08-17T23:34:28.332Z,26.28
2022-08-17T23:36:56.285Z,26.26
2022-08-17T23:39:24.601Z,26.22
2022-08-17T23:41:59.186Z,26.25
2022-08-17T23:44:26.910Z,26.19
2022-08-17T23:46:54.392Z,26.06
2022-08-17T23:49:21.292Z,26.02
2022-08-17T23:51:49.165Z,26.14
2022-08-17T23:54:33.765Z,26.17
2022-08-17T23:57:01.972Z,26.00
2022-08-17T23:59:29.336Z,26.11
